createdAt,value
2023-04-25T00:00:55.536Z,1.30
2023-04-25T00:03:22.781Z,0.70
2023-04-25T00:05:50.340Z,0.70
2023-04-25T00:08:17.371Z,0.90
2023-04-25T00:10:44.326Z,1.80
2023-04-25T00:13:12.568Z,1.40
2023-04-25T00:15:39.917Z,1.10
2023-04-25T00:18:07.669Z,1.30
2023-04-25T00:20:34.754Z,0.80
2023-04-25T00:23:01.725Z,0.90
2023-04-25T00:25:28.707Z,0.70
2023-04-25T00:27:56.302Z,1.90
2023-04-25T00:30:23.345Z,1.00
2023-04-25T00:32:51.043Z,1.70
2023-04-25T00:35:18.149Z,0.80
2023-04-25T00:37:45.198Z,1.10
2023-04-25T00:40:12.653Z,1.50
2023-04-25T00:42:39.698Z,1.10
2023-04-25T00:45:08.549Z,1.00
2023-04-25T00:47:35.749Z,1.20
2023-04-25T00:50:02.787Z,0.70
2023-04-25T00:52:29.721Z,1.30
2023-04-25T00:54:56.772Z,1.20
2023-04-25T00:57:23.684Z,1.60
2023-04-25T00:59:50.607Z,1.90
2023-04-25T01:02:17.935Z,0.90
2023-04-25T01:04:45.056Z,1.60
2023-04-25T01:07:11.991Z,1.50
2023-04-25T01:09:39.053Z,0.60
2023-04-25T01:12:06.207Z,1.70
2023-04-25T01:14:33.118Z,1.80
2023-04-25T01:17:00.166Z,1.10
2023-04-25T01:19:27.338Z,1.30
2023-04-25T01:21:54.382Z,1.00
2023-04-25T01:24:21.290Z,1.30
2023-04-25T01:26:51.477Z,0.80
2023-04-25T01:29:23.307Z,1.10
2023-04-25T01:31:50.329Z,1.40
2023-04-25T01:34:17.280Z,1.50
2023-04-25T01:36:44.339Z,1.50
2023-04-25T01:39:11.337Z,1.10
2023-04-25T01:41:39.150Z,1.70
2023-04-25T01:44:06.775Z,1.30
2023-04-25T01:46:34.671Z,1.70
2023-04-25T01:49:02.128Z,1.80
2023-04-25T01:51:29.436Z,1.70
2023-04-25T01:53:56.428Z,1.40
2023-04-25T01:56:23.775Z,1.70
2023-04-25T01:58:50.708Z,1.40
2023-04-25T02:01:20.562Z,1.50
2023-04-25T02:03:54.542Z,1.80
2023-04-25T02:06:27.452Z,1.50
2023-04-25T02:08:57.242Z,1.10
2023-04-25T02:11:24.162Z,1.20
2023-04-25T02:14:08.944Z,2.30
2023-04-25T02:16:45.010Z,1.20
2023-04-25T02:19:12.194Z,1.70
2023-04-25T02:21:39.203Z,1.40
2023-04-25T02:24:07.102Z,1.20
2023-04-25T02:26:34.824Z,1.50
2023-04-25T02:29:02.496Z,1.80
2023-04-25T02:31:29.425Z,1.10
2023-04-25T02:33:58.524Z,1.20
2023-04-25T02:36:25.502Z,0.80
2023-04-25T02:38:53.051Z,1.50
2023-04-25T02:41:22.048Z,1.30
2023-04-25T02:43:49.276Z,2.30
2023-04-25T02:46:25.549Z,0.80
2023-04-25T02:49:00.567Z,1.10
2023-04-25T02:51:27.505Z,0.90
2023-04-25T02:53:54.549Z,0.70
2023-04-25T02:56:21.748Z,1.70
2023-04-25T02:58:48.743Z,1.30
2023-04-25T03:01:16.245Z,1.20
2023-04-25T03:03:43.355Z,1.70
2023-04-25T03:06:10.731Z,1.20
2023-04-25T03:08:37.755Z,1.80
2023-04-25T03:11:04.894Z,1.40
2023-04-25T03:13:31.917Z,1.70
2023-04-25T03:15:59.613Z,2.00
2023-04-25T03:18:26.637Z,1.60
2023-04-25T03:20:55.353Z,1.40
2023-04-25T03:23:22.586Z,1.20
2023-04-25T03:25:49.776Z,2.20
2023-04-25T03:28:17.291Z,1.50
2023-04-25T03:30:44.436Z,1.70
2023-04-25T03:33:11.735Z,1.60
2023-04-25T03:35:38.923Z,1.40
2023-04-25T03:38:06.078Z,2.20
2023-04-25T03:40:36.451Z,1.40
2023-04-25T03:43:16.460Z,1.90
2023-04-25T03:45:48.803Z,1.50
2023-04-25T03:48:16.596Z,1.30
2023-04-25T03:50:43.743Z,1.70
2023-04-25T03:53:10.672Z,1.30
2023-04-25T03:55:57.605Z,2.90
2023-04-25T03:58:25.547Z,1.90
2023-04-25T04:00:52.623Z,2.10
2023-04-25T04:03:19.959Z,1.30
2023-04-25T04:05:47.786Z,1.60
2023-04-25T04:08:14.980Z,1.50
2023-04-25T04:10:42.646Z,1.30
2023-04-25T04:13:09.891Z,1.90
2023-04-25T04:15:37.029Z,1.40
2023-04-25T04:18:04.111Z,1.40
2023-04-25T04:20:31.747Z,1.30
2023-04-25T04:22:58.731Z,1.00
2023-04-25T04:25:26.044Z,1.20
2023-04-25T04:28:06.154Z,2.00
2023-04-25T04:30:56.721Z,1.50
2023-04-25T04:33:24.650Z,1.00
2023-04-25T04:35:57.684Z,1.50
2023-04-25T04:38:25.049Z,2.00
2023-04-25T04:40:53.682Z,1.40
2023-04-25T04:43:34.762Z,0.90
2023-04-25T04:46:07.538Z,2.00
2023-04-25T04:48:54.098Z,2.00
2023-04-25T04:51:52.009Z,1.50
2023-04-25T04:54:38.039Z,1.80
2023-04-25T04:57:34.271Z,1.80
2023-04-25T05:00:22.001Z,1.50
2023-04-25T05:02:49.106Z,1.50
2023-04-25T05:05:31.609Z,1.60
2023-04-25T05:08:21.605Z,1.70
2023-04-25T05:11:06.213Z,1.30
2023-04-25T05:13:53.825Z,1.40
2023-04-25T05:16:46.465Z,2.20
2023-04-25T05:19:33.422Z,1.50
2023-04-25T05:22:17.428Z,2.10
2023-04-25T05:25:10.604Z,2.60
2023-04-25T05:27:58.182Z,2.90
2023-04-25T05:30:45.370Z,1.30
2023-04-25T05:33:17.769Z,1.40
2023-04-25T05:35:45.839Z,1.80
2023-04-25T05:38:12.775Z,2.20
2023-04-25T05:40:59.733Z,1.10
2023-04-25T05:43:50.129Z,0.90
2023-04-25T05:46:36.715Z,1.70
2023-04-25T05:49:23.718Z,1.20
2023-04-25T05:51:53.583Z,2.20
2023-04-25T05:54:40.850Z,1.60
2023-04-25T05:57:10.010Z,1.50
2023-04-25T05:59:37.483Z,0.90
2023-04-25T06:02:04.490Z,1.40
2023-04-25T06:04:33.620Z,1.00
2023-04-25T06:07:01.489Z,1.80
2023-04-25T06:09:28.636Z,2.50
2023-04-25T06:11:55.785Z,1.90
2023-04-25T06:14:23.712Z,1.70
2023-04-25T06:16:51.855Z,1.60
2023-04-25T06:19:19.186Z,2.40
2023-04-25T06:21:46.427Z,2.20
2023-04-25T06:24:13.554Z,2.30
2023-04-25T06:26:40.774Z,2.50
2023-04-25T06:29:08.094Z,2.30
2023-04-25T06:31:35.263Z,1.80
2023-04-25T06:34:02.517Z,1.70
2023-04-25T06:36:30.139Z,2.10
2023-04-25T06:39:01.486Z,2.30
2023-04-25T06:41:28.531Z,1.50
2023-04-25T06:44:00.087Z,1.60
2023-04-25T06:46:37.530Z,0.80
2023-04-25T06:49:04.931Z,1.10
2023-04-25T06:51:31.955Z,0.90
2023-04-25T06:53:58.996Z,1.10
2023-04-25T06:56:31.965Z,1.50
2023-04-25T06:59:05.930Z,1.40
2023-04-25T07:01:36.780Z,1.50
2023-04-25T07:04:07.592Z,2.20
2023-04-25T07:06:39.216Z,1.50
2023-04-25T07:09:06.589Z,2.00
2023-04-25T07:11:33.525Z,1.80
2023-04-25T07:14:00.905Z,1.70
2023-04-25T07:16:28.265Z,1.40
2023-04-25T07:18:55.466Z,1.90
2023-04-25T07:21:22.664Z,1.40
2023-04-25T07:23:50.727Z,1.10
2023-04-25T07:26:20.540Z,1.70
2023-04-25T07:29:06.620Z,1.30
2023-04-25T07:31:33.679Z,2.10
2023-04-25T07:34:02.060Z,2.30
2023-04-25T07:36:29.603Z,1.50
2023-04-25T07:38:56.600Z,2.10
2023-04-25T07:41:23.900Z,1.80
2023-04-25T07:43:50.885Z,3.10
2023-04-25T07:46:18.018Z,3.10
2023-04-25T07:48:45.141Z,2.40
2023-04-25T07:51:12.425Z,1.70
2023-04-25T07:53:39.751Z,2.00
2023-04-25T07:56:10.818Z,2.20
2023-04-25T07:58:39.804Z,1.60
2023-04-25T08:01:09.105Z,1.70
2023-04-25T08:03:36.532Z,1.80
2023-04-25T08:06:08.442Z,2.10
2023-04-25T08:11:09.455Z,3.30
2023-04-25T08:13:37.035Z,2.00
2023-04-25T08:16:05.046Z,2.50
2023-04-25T08:18:39.028Z,1.80
2023-04-25T08:21:06.439Z,1.80
2023-04-25T08:23:33.708Z,1.70
2023-04-25T08:26:12.577Z,2.40
2023-04-25T08:28:39.764Z,2.80
2023-04-25T08:31:07.387Z,2.00
2023-04-25T08:33:41.858Z,3.10
2023-04-25T08:38:59.977Z,2.30
2023-04-25T08:41:27.879Z,2.70
2023-04-25T08:43:54.914Z,1.60
2023-04-25T08:46:21.852Z,1.90
2023-04-25T08:49:12.086Z,2.20
2023-04-25T08:51:46.463Z,2.10
2023-04-25T08:56:47.302Z,1.60
2023-04-25T08:59:14.481Z,1.50
2023-04-25T09:01:41.819Z,1.80
2023-04-25T09:04:09.313Z,1.30
2023-04-25T09:06:36.523Z,2.00
2023-04-25T09:09:09.278Z,1.60
2023-04-25T09:11:37.476Z,2.70
2023-04-25T09:14:29.204Z,2.50
2023-04-25T09:17:06.188Z,2.30
2023-04-25T09:19:42.239Z,3.70
2023-04-25T09:22:25.847Z,2.80
2023-04-25T09:24:53.328Z,2.80
2023-04-25T09:27:26.426Z,3.30
2023-04-25T09:30:01.686Z,2.00
2023-04-25T09:32:32.077Z,2.10
2023-04-25T09:34:59.376Z,2.00
2023-04-25T09:37:28.489Z,2.00
2023-04-25T09:40:14.469Z,2.50
2023-04-25T09:42:52.421Z,3.80
2023-04-25T09:45:19.607Z,2.20
2023-04-25T09:47:47.427Z,2.40
2023-04-25T09:50:20.521Z,2.20
2023-04-25T09:53:11.902Z,2.10
2023-04-25T09:56:07.921Z,2.20
2023-04-25T09:58:35.600Z,2.00
2023-04-25T10:01:04.331Z,1.10
2023-04-25T10:03:38.403Z,1.10
2023-04-25T10:06:35.166Z,1.30
2023-04-25T10:09:02.221Z,2.70
2023-04-25T10:11:29.362Z,1.20
2023-04-25T10:13:56.406Z,1.40
2023-04-25T10:16:23.742Z,1.50
2023-04-25T10:18:51.851Z,0.90
2023-04-25T10:21:19.024Z,1.20
2023-04-25T10:23:47.015Z,1.40
2023-04-25T10:26:15.573Z,1.60
2023-04-25T10:28:59.478Z,2.00
2023-04-25T10:31:27.014Z,1.10
2023-04-25T10:33:55.124Z,1.20
2023-04-25T10:36:23.938Z,2.30
2023-04-25T10:38:52.471Z,1.60
2023-04-25T10:41:21.690Z,2.60
2023-04-25T10:43:49.405Z,1.90
2023-04-25T10:46:20.832Z,2.00
2023-04-25T10:49:01.424Z,1.90
2023-04-25T10:51:51.683Z,1.50
2023-04-25T10:54:23.578Z,1.20
2023-04-25T10:56:52.002Z,2.70
2023-04-25T10:59:20.204Z,2.00
2023-04-25T11:01:49.236Z,2.30
2023-04-25T11:04:33.221Z,1.80
2023-04-25T11:07:32.805Z,1.40
2023-04-25T11:09:59.741Z,1.70
2023-04-25T11:12:26.899Z,1.60
2023-04-25T11:15:00.816Z,2.20
2023-04-25T11:17:28.125Z,1.40
2023-04-25T11:19:58.271Z,1.50
2023-04-25T11:23:06.465Z,1.60
2023-04-25T11:26:26.891Z,1.00
2023-04-25T11:30:04.070Z,1.60
2023-04-25T11:33:06.508Z,1.60
2023-04-25T11:35:56.546Z,1.30
2023-04-25T11:38:30.125Z,1.20
2023-04-25T11:41:22.121Z,2.10
2023-04-25T11:48:26.733Z,1.10
2023-04-25T11:52:04.003Z,1.20
2023-04-25T11:55:35.259Z,1.20
2023-04-25T11:58:58.462Z,2.40
2023-04-25T12:05:32.886Z,2.20
2023-04-25T12:08:14.625Z,1.60
2023-04-25T12:10:42.187Z,1.50
2023-04-25T12:13:26.233Z,1.30
2023-04-25T12:15:55.720Z,1.40
2023-04-25T12:18:24.748Z,1.70
2023-04-25T12:20:51.801Z,2.00
2023-04-25T12:23:27.908Z,1.40
2023-04-25T12:25:55.099Z,1.80
2023-04-25T12:28:31.797Z,1.30
2023-04-25T12:31:04.409Z,1.80
2023-04-25T12:33:35.994Z,2.00
2023-04-25T12:36:09.638Z,2.00
2023-04-25T12:38:38.441Z,1.90
2023-04-25T12:41:06.073Z,1.40
2023-04-25T12:43:33.075Z,1.70
2023-04-25T12:46:00.172Z,1.30
2023-04-25T12:48:27.293Z,1.50
2023-04-25T12:50:54.342Z,2.40
2023-04-25T12:53:22.275Z,2.30
2023-04-25T12:55:49.386Z,1.60
2023-04-25T12:58:16.950Z,1.70
2023-04-25T13:00:44.185Z,1.20
2023-04-25T13:03:15.013Z,1.30
2023-04-25T13:05:42.292Z,1.60
2023-04-25T13:08:09.401Z,1.10
2023-04-25T13:10:37.302Z,1.30
2023-04-25T13:13:04.308Z,1.70
2023-04-25T13:15:31.300Z,2.10
2023-04-25T13:17:58.349Z,1.60
2023-04-25T13:20:25.895Z,1.00
2023-04-25T13:22:52.836Z,1.70
2023-04-25T13:25:19.955Z,1.70
2023-04-25T13:27:47.628Z,1.70
2023-04-25T13:30:14.966Z,1.60
2023-04-25T13:32:42.240Z,2.30
2023-04-25T13:35:11.385Z,1.40
2023-04-25T13:37:39.129Z,1.60
2023-04-25T13:40:10.479Z,1.40
2023-04-25T13:42:41.601Z,1.70
2023-04-25T13:45:11.479Z,1.80
2023-04-25T13:47:43.352Z,2.20
2023-04-25T13:50:11.828Z,1.80
2023-04-25T13:52:42.914Z,2.20
2023-04-25T13:55:13.122Z,1.50
2023-04-25T13:57:41.788Z,2.10
2023-04-25T14:00:11.284Z,2.00
2023-04-25T14:02:39.005Z,1.50
2023-04-25T14:05:12.099Z,2.00
2023-04-25T14:07:41.210Z,1.20
2023-04-25T14:10:09.620Z,1.10
2023-04-25T14:12:36.737Z,2.50
2023-04-25T14:15:04.354Z,2.00
2023-04-25T14:17:31.481Z,2.30
2023-04-25T14:19:58.802Z,2.90
2023-04-25T14:22:26.973Z,1.60
2023-04-25T14:24:54.331Z,1.50
2023-04-25T14:27:21.503Z,2.60
2023-04-25T14:29:48.724Z,1.50
2023-04-25T14:32:49.779Z,1.90
2023-04-25T14:35:17.174Z,1.70
2023-04-25T14:37:45.658Z,1.80
2023-04-25T14:40:14.402Z,1.70
2023-04-25T14:42:42.095Z,1.50
2023-04-25T14:45:09.931Z,2.30
2023-04-25T14:47:37.928Z,1.80
2023-04-25T14:50:06.382Z,2.70
2023-04-25T14:52:33.370Z,2.00
2023-04-25T14:55:06.108Z,2.00
2023-04-25T14:57:34.018Z,2.80
2023-04-25T15:00:01.264Z,1.70
2023-04-25T15:02:29.285Z,2.50
2023-04-25T15:04:59.412Z,2.10
2023-04-25T15:07:26.866Z,1.50
2023-04-25T15:09:54.978Z,1.70
2023-04-25T15:12:22.606Z,2.00
2023-04-25T15:14:50.019Z,1.50
2023-04-25T15:17:17.245Z,2.40
2023-04-25T15:19:44.539Z,1.30
2023-04-25T15:22:11.658Z,1.30
2023-04-25T15:24:38.599Z,2.00
2023-04-25T15:27:05.878Z,1.80
2023-04-25T15:29:32.899Z,1.50
2023-04-25T15:31:59.868Z,1.70
2023-04-25T15:34:26.974Z,1.80
2023-04-25T15:36:54.028Z,1.40
2023-04-25T15:39:22.602Z,1.20
2023-04-25T15:41:49.685Z,1.40
2023-04-25T15:44:16.844Z,1.60
2023-04-25T15:46:45.891Z,1.40
2023-04-25T15:49:13.353Z,1.10
2023-04-25T15:51:40.384Z,1.20
2023-04-25T15:54:07.499Z,1.70
2023-04-25T15:56:34.684Z,1.00
2023-04-25T15:59:01.786Z,0.90
2023-04-25T16:01:31.507Z,1.30
2023-04-25T16:06:30.939Z,1.60
2023-04-25T16:08:58.849Z,1.20
2023-04-25T16:11:25.879Z,1.50
2023-04-25T16:13:53.152Z,1.50
2023-04-25T16:16:20.498Z,1.50
2023-04-25T16:18:47.568Z,2.20
2023-04-25T16:21:17.369Z,1.90
2023-04-25T16:23:44.462Z,1.80
2023-04-25T16:26:11.540Z,1.50
2023-04-25T16:28:38.835Z,1.80
2023-04-25T16:31:07.064Z,1.70
2023-04-25T16:33:34.654Z,1.80
2023-04-25T16:36:01.805Z,1.90
2023-04-25T16:38:28.827Z,2.00
2023-04-25T17:12:19.707Z,4.50
2023-04-25T17:14:46.925Z,5.70
2023-04-25T17:17:13.962Z,4.20
2023-04-25T17:19:41.695Z,3.10
2023-04-25T17:22:09.092Z,4.70
2023-04-25T17:24:36.119Z,2.30
2023-04-25T17:27:03.629Z,2.80
2023-04-25T17:29:30.596Z,2.10
2023-04-25T17:31:57.954Z,3.20
2023-04-25T17:34:25.942Z,3.90
2023-04-25T17:36:53.381Z,4.00
2023-04-25T17:39:21.631Z,3.60
2023-04-25T17:41:48.692Z,2.40
2023-04-25T17:44:15.777Z,2.80
2023-04-25T17:46:42.787Z,3.60
2023-04-25T17:49:10.265Z,3.10
2023-04-25T17:51:37.592Z,3.50
2023-04-25T17:54:04.650Z,3.50
2023-04-25T17:56:32.099Z,3.10
2023-04-25T17:59:00.896Z,3.20
2023-04-25T18:01:30.980Z,2.60
2023-04-25T18:03:58.333Z,2.80
2023-04-25T18:06:28.376Z,1.90
2023-04-25T18:08:57.313Z,1.80
2023-04-25T18:11:24.832Z,1.40
2023-04-25T18:13:51.888Z,1.50
2023-04-25T18:16:18.973Z,1.80
2023-04-25T18:18:53.200Z,1.70
2023-04-25T18:21:20.913Z,2.10
2023-04-25T18:23:48.146Z,1.60
2023-04-25T18:26:16.212Z,2.50
2023-04-25T18:28:43.264Z,2.30
2023-04-25T18:31:11.879Z,2.10
2023-04-25T18:33:40.426Z,3.10
2023-04-25T18:36:08.071Z,3.60
2023-04-25T18:38:36.188Z,3.70
2023-04-25T18:41:27.147Z,3.70
2023-04-25T18:43:55.553Z,2.90
2023-04-25T18:46:23.026Z,3.50
2023-04-25T18:48:53.955Z,3.00
2023-04-25T18:51:23.899Z,2.80
2023-04-25T18:53:51.099Z,2.10
2023-04-25T18:56:21.127Z,2.70
2023-04-25T18:58:48.498Z,2.20
2023-04-25T19:01:15.527Z,2.80
2023-04-25T19:03:42.733Z,2.10
2023-04-25T19:09:00.524Z,2.20
2023-04-25T19:11:27.454Z,2.30
2023-04-25T19:13:57.387Z,1.60
2023-04-25T19:16:26.554Z,1.30
2023-04-25T19:18:55.291Z,1.50
2023-04-25T19:21:22.831Z,1.20
2023-04-25T19:23:50.095Z,1.60
2023-04-25T19:26:18.731Z,1.80
2023-04-25T19:28:45.792Z,1.40
2023-04-25T19:31:13.325Z,2.10
2023-04-25T19:33:41.342Z,1.80
2023-04-25T19:36:08.818Z,0.80
2023-04-25T19:38:36.026Z,1.90
2023-04-25T19:41:02.996Z,1.40
2023-04-25T19:43:30.940Z,0.90
2023-04-25T19:45:58.313Z,0.80
2023-04-25T19:48:25.396Z,1.50
2023-04-25T19:50:52.480Z,1.20
2023-04-25T19:53:19.534Z,0.90
2023-04-25T19:55:46.983Z,1.50
2023-04-25T19:58:14.658Z,1.00
2023-04-25T20:00:41.794Z,1.90
2023-04-25T20:03:10.846Z,1.30
2023-04-25T20:05:37.990Z,1.50
2023-04-25T20:08:04.998Z,2.00
2023-04-25T20:10:31.931Z,1.60
2023-04-25T20:12:58.913Z,1.30
2023-04-25T20:15:25.843Z,1.00
2023-04-25T20:17:52.831Z,1.00
2023-04-25T20:20:20.255Z,1.60
2023-04-25T20:22:47.458Z,0.90
2023-04-25T20:25:14.404Z,1.30
2023-04-25T20:27:41.548Z,1.10
2023-04-25T20:30:09.843Z,1.40
2023-04-25T20:32:37.195Z,1.20
2023-04-25T20:35:05.614Z,1.70
2023-04-25T20:37:33.343Z,1.50
2023-04-25T20:40:01.088Z,0.90
2023-04-25T20:42:28.237Z,0.90
2023-04-25T20:44:55.280Z,1.10
2023-04-25T20:47:22.544Z,0.80
2023-04-25T20:49:50.145Z,1.00
2023-04-25T20:52:20.011Z,1.20
2023-04-25T20:54:50.827Z,1.20
2023-04-25T20:57:18.101Z,1.00
2023-04-25T20:59:45.246Z,1.00
2023-04-25T21:02:12.637Z,0.70
2023-04-25T21:04:40.031Z,0.90
2023-04-25T21:07:07.200Z,1.10
2023-04-25T21:09:34.346Z,1.10
2023-04-25T21:12:01.293Z,1.00
2023-04-25T21:14:28.342Z,0.90
2023-04-25T21:16:55.435Z,1.20
2023-04-25T21:19:22.534Z,0.80
2023-04-25T21:21:49.579Z,0.90
2023-04-25T21:24:16.628Z,1.10
2023-04-25T21:26:43.626Z,0.70
2023-04-25T21:29:10.720Z,1.70
2023-04-25T21:31:38.514Z,0.80
2023-04-25T21:34:07.279Z,1.20
2023-04-25T21:36:34.630Z,1.10
2023-04-25T21:39:02.026Z,2.00
2023-04-25T21:41:29.126Z,1.10
2023-04-25T21:43:56.131Z,1.70
2023-04-25T21:46:24.628Z,1.50
2023-04-25T21:48:52.091Z,0.80
2023-04-25T21:51:19.719Z,1.80
2023-04-25T21:53:46.821Z,0.80
2023-04-25T21:56:13.769Z,1.30
2023-04-25T21:58:40.735Z,1.70
2023-04-25T22:01:07.657Z,1.00
2023-04-25T22:03:34.693Z,1.70
2023-04-25T22:06:01.794Z,0.80
2023-04-25T22:08:28.720Z,1.40
2023-04-25T22:10:55.734Z,1.30
2023-04-25T22:13:23.033Z,1.10
2023-04-25T22:15:50.058Z,1.60
2023-04-25T22:18:17.018Z,0.70
2023-04-25T22:20:44.444Z,1.00
2023-04-25T22:23:12.275Z,1.10
2023-04-25T22:25:40.667Z,1.20
2023-04-25T22:28:07.752Z,1.00
2023-04-25T22:30:35.287Z,1.00
2023-04-25T22:33:02.289Z,0.90
2023-04-25T22:35:29.373Z,1.30
2023-04-25T22:37:56.455Z,2.40
2023-04-25T22:40:23.448Z,1.10
2023-04-25T22:42:50.495Z,1.30
2023-04-25T22:45:17.559Z,1.70
2023-04-25T22:47:44.674Z,1.70
2023-04-25T22:50:17.139Z,1.20
2023-04-25T22:52:44.315Z,1.90
2023-04-25T22:55:13.303Z,1.40
2023-04-25T22:57:40.675Z,1.50
2023-04-25T23:00:15.706Z,1.10
2023-04-25T23:05:13.557Z,1.10
2023-04-25T23:07:45.135Z,1.30
2023-04-25T23:10:13.349Z,1.10
2023-04-25T23:12:40.355Z,1.30
2023-04-25T23:15:08.351Z,0.80
2023-04-25T23:17:35.503Z,1.60
2023-04-25T23:20:05.711Z,0.60
2023-04-25T23:22:32.728Z,1.20
2023-04-25T23:25:00.187Z,1.50
2023-04-25T23:27:27.663Z,2.00
2023-04-25T23:29:58.211Z,0.90
2023-04-25T23:32:26.513Z,0.70
2023-04-25T23:34:53.494Z,1.50
2023-04-25T23:37:20.557Z,1.30
2023-04-25T23:39:49.459Z,1.30
2023-04-25T23:42:17.318Z,1.10
2023-04-25T23:44:44.330Z,1.30
2023-04-25T23:47:14.128Z,1.10
2023-04-25T23:49:41.445Z,1.50
2023-04-25T23:52:08.480Z,1.00
2023-04-25T23:54:36.106Z,0.90
2023-04-25T23:57:06.447Z,1.40
2023-04-25T23:59:33.433Z,1.30
